createdAt,value
2022-11-12T00:00:29.601Z,5.40
2022-11-12T00:03:16.642Z,5.17
2022-11-12T00:06:04.665Z,3.83
2022-11-12T00:08:51.469Z,3.80
2022-11-12T00:11:38.343Z,3.30
2022-11-12T00:14:25.124Z,3.77
2022-11-12T00:17:11.989Z,4.03
2022-11-12T00:19:58.987Z,3.97
2022-11-12T00:22:47.088Z,3.70
2022-11-12T00:25:33.784Z,4.03
2022-11-12T00:33:57.795Z,3.23
2022-11-12T00:36:44.683Z,3.07
2022-11-12T00:39:32.874Z,3.63
2022-11-12T00:42:19.811Z,3.27
2022-11-12T00:45:07.935Z,3.23
2022-11-12T00:47:57.528Z,3.27
2022-11-12T00:50:44.186Z,2.80
2022-11-12T00:53:31.283Z,3.70
2022-11-12T00:56:19.478Z,3.17
2022-11-12T00:59:06.334Z,3.50
2022-11-12T01:01:53.001Z,3.30
2022-11-12T01:04:39.983Z,3.00
2022-11-12T01:07:26.799Z,3.30
2022-11-12T01:10:13.826Z,3.47
2022-11-12T01:13:02.158Z,3.30
2022-11-12T01:15:48.703Z,3.30
2022-11-12T01:18:35.610Z,3.67
2022-11-12T01:21:23.424Z,3.57
2022-11-12T01:24:10.879Z,3.43
2022-11-12T01:26:57.631Z,2.90
2022-11-12T01:29:45.745Z,3.20
2022-11-12T01:32:36.889Z,3.40
2022-11-12T01:35:23.584Z,3.27
2022-11-12T01:38:10.552Z,3.40
2022-11-12T01:40:57.466Z,4.03
2022-11-12T01:43:44.061Z,3.80
2022-11-12T01:46:32.402Z,3.50
2022-11-12T01:49:25.319Z,3.63
2022-11-12T01:52:18.586Z,3.40
2022-11-12T01:55:10.520Z,3.17
2022-11-12T01:58:14.646Z,2.93
2022-11-12T02:01:03.448Z,3.20
2022-11-12T02:03:52.016Z,3.23
2022-11-12T02:06:40.878Z,3.27
2022-11-12T02:09:27.670Z,3.20
2022-11-12T02:12:34.307Z,3.00
2022-11-12T02:15:20.453Z,3.30
2022-11-12T02:18:07.426Z,3.03
2022-11-12T02:20:59.053Z,2.93
2022-11-12T02:23:46.896Z,2.90
2022-11-12T02:26:38.028Z,3.13
2022-11-12T02:29:24.729Z,2.70
2022-11-12T02:32:11.643Z,2.57
2022-11-12T02:34:58.632Z,2.63
2022-11-12T02:37:45.206Z,3.23
2022-11-12T02:40:33.243Z,3.20
2022-11-12T02:43:21.499Z,2.93
2022-11-12T02:46:08.868Z,3.27
2022-11-12T02:48:55.575Z,2.77
2022-11-12T02:51:42.442Z,3.17
2022-11-12T02:54:29.210Z,3.40
2022-11-12T02:57:17.179Z,3.10
2022-11-12T03:00:04.902Z,3.10
2022-11-12T03:02:58.985Z,2.80
2022-11-12T03:05:47.137Z,2.97
2022-11-12T03:08:33.859Z,3.10
2022-11-12T03:11:20.515Z,2.60
2022-11-12T03:14:08.501Z,2.83
2022-11-12T03:16:55.059Z,3.17
2022-11-12T03:19:41.840Z,3.13
2022-11-12T03:22:28.508Z,3.10
2022-11-12T03:25:15.245Z,3.00
2022-11-12T03:28:04.963Z,2.87
2022-11-12T03:30:53.034Z,3.17
2022-11-12T03:33:40.417Z,2.97
2022-11-12T03:36:27.096Z,3.33
2022-11-12T03:39:13.922Z,2.87
2022-11-12T03:42:00.529Z,2.90
2022-11-12T03:44:47.326Z,2.67
2022-11-12T03:47:35.765Z,2.80
2022-11-12T03:50:25.619Z,3.13
2022-11-12T03:53:12.412Z,2.83
2022-11-12T03:55:58.944Z,2.80
2022-11-12T03:58:45.679Z,3.00
2022-11-12T04:01:33.205Z,2.90
2022-11-12T04:04:21.003Z,3.07
2022-11-12T04:07:25.201Z,3.13
2022-11-12T04:10:11.704Z,3.00
2022-11-12T04:13:16.056Z,3.37
2022-11-12T04:16:23.025Z,2.70
2022-11-12T04:19:31.874Z,2.83
2022-11-12T04:22:19.893Z,2.87
2022-11-12T04:25:25.007Z,2.90
2022-11-12T04:28:11.823Z,2.90
2022-11-12T04:30:57.272Z,2.63
2022-11-12T04:33:43.911Z,2.90
2022-11-12T04:36:30.293Z,2.50
2022-11-12T04:39:18.422Z,2.60
2022-11-12T04:42:22.979Z,2.60
2022-11-12T04:45:14.262Z,2.33
2022-11-12T04:48:00.943Z,2.50
2022-11-12T04:50:50.865Z,3.10
2022-11-12T04:53:37.689Z,2.90
2022-11-12T04:56:25.642Z,2.47
2022-11-12T04:59:12.091Z,2.67
2022-11-12T05:01:58.679Z,2.50
2022-11-12T05:04:45.546Z,3.30
2022-11-12T05:07:33.598Z,3.07
2022-11-12T05:10:20.500Z,2.60
2022-11-12T05:13:08.525Z,3.27
2022-11-12T05:15:54.887Z,2.90
2022-11-12T05:18:41.962Z,2.40
2022-11-12T05:21:46.143Z,2.60
2022-11-12T05:24:41.947Z,2.50
2022-11-12T05:27:29.292Z,2.37
2022-11-12T05:30:17.632Z,2.80
2022-11-12T05:33:04.442Z,2.50
2022-11-12T05:35:51.491Z,2.77
2022-11-12T05:38:39.168Z,2.30
2022-11-12T05:41:25.927Z,2.50
2022-11-12T05:44:13.091Z,2.73
2022-11-12T05:47:01.305Z,2.33
2022-11-12T05:49:47.922Z,2.63
2022-11-12T05:52:34.453Z,2.67
2022-11-12T05:55:21.447Z,2.70
2022-11-12T05:58:08.442Z,2.90
2022-11-12T06:00:55.223Z,2.57
2022-11-12T06:03:43.395Z,3.50
2022-11-12T06:06:30.033Z,3.03
2022-11-12T06:09:16.800Z,3.20
2022-11-12T06:12:06.202Z,2.67
2022-11-12T06:14:52.785Z,2.90
2022-11-12T06:17:39.539Z,2.70
2022-11-12T06:20:27.574Z,2.50
2022-11-12T06:23:14.490Z,2.57
2022-11-12T06:26:01.029Z,2.57
2022-11-12T06:28:49.378Z,2.60
2022-11-12T06:31:35.889Z,2.80
2022-11-12T06:34:22.703Z,2.30
2022-11-12T06:37:10.753Z,2.30
2022-11-12T06:39:57.432Z,2.73
2022-11-12T06:42:44.184Z,2.57
2022-11-12T06:45:30.817Z,2.67
2022-11-12T06:48:17.757Z,2.60
2022-11-12T06:51:13.349Z,2.77
2022-11-12T06:54:01.333Z,2.17
2022-11-12T06:56:48.163Z,2.77
2022-11-12T06:59:34.717Z,2.80
2022-11-12T07:02:21.602Z,2.93
2022-11-12T07:05:08.919Z,3.17
2022-11-12T07:07:56.162Z,3.27
2022-11-12T07:10:44.071Z,3.10
2022-11-12T07:13:32.600Z,4.33
2022-11-12T07:16:19.634Z,4.00
2022-11-12T07:19:06.422Z,2.70
2022-11-12T07:21:53.124Z,2.13
2022-11-12T07:24:40.032Z,2.70
2022-11-12T07:27:30.853Z,2.27
2022-11-12T07:30:17.789Z,2.27
2022-11-12T07:33:04.458Z,2.47
2022-11-12T07:35:57.970Z,2.63
2022-11-12T07:38:45.429Z,2.87
2022-11-12T07:41:31.945Z,2.90
2022-11-12T07:44:19.955Z,3.00
2022-11-12T07:47:06.674Z,2.47
2022-11-12T07:49:53.411Z,2.57
2022-11-12T07:52:40.473Z,2.40
2022-11-12T07:55:27.511Z,2.07
2022-11-12T07:58:14.422Z,2.30
2022-11-12T08:01:10.100Z,2.47
2022-11-12T08:03:56.611Z,2.20
2022-11-12T08:06:43.598Z,2.40
2022-11-12T08:09:30.460Z,2.57
2022-11-12T08:12:17.306Z,2.17
2022-11-12T08:15:04.167Z,2.20
2022-11-12T08:17:54.130Z,2.53
2022-11-12T08:20:41.161Z,1.83
2022-11-12T08:23:28.022Z,1.87
2022-11-12T08:26:17.704Z,2.27
2022-11-12T08:29:08.704Z,1.90
2022-11-12T08:31:55.863Z,1.90
2022-11-12T08:34:43.835Z,1.70
2022-11-12T08:37:30.791Z,2.17
2022-11-12T08:40:17.647Z,1.80
2022-11-12T08:43:07.757Z,2.10
2022-11-12T08:45:55.079Z,2.27
2022-11-12T08:48:42.084Z,2.07
2022-11-12T08:51:29.981Z,1.70
2022-11-12T08:54:16.561Z,2.03
2022-11-12T08:57:05.823Z,2.20
2022-11-12T08:59:52.412Z,2.17
2022-11-12T09:02:39.014Z,2.00
2022-11-12T09:05:25.861Z,1.90
2022-11-12T09:08:17.282Z,2.20
2022-11-12T09:11:07.023Z,1.93
2022-11-12T09:13:54.870Z,2.47
2022-11-12T09:16:41.458Z,2.10
2022-11-12T09:19:28.298Z,2.97
2022-11-12T09:22:14.811Z,2.20
2022-11-12T09:25:03.016Z,1.93
2022-11-12T09:27:49.710Z,2.40
2022-11-12T09:30:37.599Z,2.07
2022-11-12T09:33:27.201Z,1.83
2022-11-12T09:36:13.925Z,1.90
2022-11-12T09:39:00.766Z,2.20
2022-11-12T09:41:48.806Z,2.00
2022-11-12T09:44:41.262Z,1.90
2022-11-12T09:47:33.771Z,1.87
2022-11-12T09:50:25.701Z,2.00
2022-11-12T09:53:20.292Z,1.80
2022-11-12T09:56:11.569Z,1.77
2022-11-12T09:58:59.973Z,1.80
2022-11-12T10:02:01.507Z,1.90
2022-11-12T10:04:59.956Z,1.90
2022-11-12T10:08:06.580Z,2.20
2022-11-12T10:11:14.633Z,1.60
2022-11-12T10:14:14.278Z,1.60
2022-11-12T10:17:09.721Z,1.80
2022-11-12T10:20:09.941Z,1.80
2022-11-12T10:23:20.097Z,1.83
2022-11-12T10:26:14.626Z,1.83
2022-11-12T10:29:15.430Z,2.00
2022-11-12T10:32:03.385Z,1.93
2022-11-12T10:34:49.752Z,1.90
2022-11-12T10:37:46.803Z,1.70
2022-11-12T10:40:37.262Z,1.60
2022-11-12T10:43:25.861Z,1.40
2022-11-12T10:46:21.331Z,1.43
2022-11-12T10:49:23.232Z,2.07
2022-11-12T10:52:23.317Z,1.63
2022-11-12T10:55:18.817Z,1.40
2022-11-12T10:58:19.572Z,1.90
2022-11-12T11:01:17.547Z,1.40
2022-11-12T11:04:05.201Z,1.50
2022-11-12T11:07:01.696Z,1.57
2022-11-12T11:09:54.717Z,1.73
2022-11-12T11:12:41.192Z,1.60
2022-11-12T11:15:27.984Z,1.90
2022-11-12T11:18:16.314Z,1.70
2022-11-12T11:21:23.667Z,1.93
2022-11-12T11:24:36.670Z,1.70
2022-11-12T11:27:33.740Z,1.80
2022-11-12T11:30:22.399Z,1.70
2022-11-12T11:33:46.232Z,2.03
2022-11-12T11:36:47.299Z,2.00
2022-11-12T11:39:44.764Z,1.83
2022-11-12T11:43:09.148Z,1.97
2022-11-12T11:46:08.265Z,3.23
2022-11-12T11:49:23.003Z,3.27
2022-11-12T11:52:42.717Z,3.43
2022-11-12T11:55:45.009Z,3.47
2022-11-12T11:58:58.543Z,3.50
2022-11-12T12:02:23.568Z,2.77
2022-11-12T12:05:30.397Z,3.33
2022-11-12T12:08:26.589Z,3.40
2022-11-12T12:11:19.445Z,3.53
2022-11-12T12:14:25.343Z,3.33
2022-11-12T12:17:33.271Z,3.13
2022-11-12T12:20:30.204Z,3.60
2022-11-12T12:23:27.537Z,3.90
2022-11-12T12:26:19.325Z,3.57
2022-11-12T12:29:12.913Z,4.10
2022-11-12T12:32:11.809Z,3.67
2022-11-12T12:35:04.841Z,3.97
2022-11-12T12:38:07.554Z,4.37
2022-11-12T12:41:01.837Z,3.57
2022-11-12T12:43:53.743Z,3.67
2022-11-12T12:46:46.154Z,3.70
2022-11-12T12:49:37.845Z,3.77
2022-11-12T12:52:24.573Z,4.37
2022-11-12T12:55:41.276Z,4.60
2022-11-12T12:58:31.333Z,4.43
2022-11-12T13:01:31.932Z,4.40
2022-11-12T13:04:38.705Z,3.80
2022-11-12T13:07:42.918Z,3.90
2022-11-12T13:10:56.111Z,3.83
2022-11-12T13:13:42.711Z,4.03
2022-11-12T13:16:57.710Z,3.90
2022-11-12T13:19:48.582Z,3.80
2022-11-12T13:22:51.396Z,3.50
2022-11-12T13:25:39.294Z,3.60
2022-11-12T13:28:27.881Z,3.53
2022-11-12T13:31:28.624Z,4.00
2022-11-12T13:34:26.302Z,3.97
2022-11-12T13:37:22.135Z,4.00
2022-11-12T13:40:15.172Z,4.23
2022-11-12T13:43:12.719Z,3.70
2022-11-12T13:46:26.089Z,3.67
2022-11-12T13:49:16.076Z,3.07
2022-11-12T13:52:02.709Z,3.40
2022-11-12T13:55:03.274Z,3.60
2022-11-12T13:57:54.008Z,3.47
2022-11-12T14:00:41.226Z,3.47
2022-11-12T14:03:33.654Z,3.33
2022-11-12T14:06:29.593Z,3.27
2022-11-12T14:09:59.246Z,3.73
2022-11-12T14:13:05.191Z,3.40
2022-11-12T14:16:11.704Z,3.20
2022-11-12T14:19:53.811Z,3.20
2022-11-12T14:22:44.537Z,3.27
2022-11-12T14:25:32.196Z,3.67
2022-11-12T14:28:29.500Z,3.77
2022-11-12T14:31:24.188Z,3.53
2022-11-12T14:34:21.593Z,3.53
2022-11-12T14:37:33.426Z,3.97
2022-11-12T14:40:23.272Z,4.30
2022-11-12T14:43:34.620Z,4.00
2022-11-12T14:46:28.858Z,4.03
2022-11-12T14:49:22.490Z,4.07
2022-11-12T14:52:16.942Z,4.20
2022-11-12T14:55:11.576Z,4.33
2022-11-12T14:58:00.400Z,5.00
2022-11-12T15:00:48.784Z,4.83
2022-11-12T15:03:35.738Z,5.27
2022-11-12T15:06:31.067Z,4.90
2022-11-12T15:09:21.794Z,4.30
2022-11-12T15:12:14.225Z,4.93
2022-11-12T15:15:10.896Z,4.80
2022-11-12T15:18:03.196Z,4.87
2022-11-12T15:21:09.290Z,4.70
2022-11-12T15:24:05.951Z,4.87
2022-11-12T15:26:53.061Z,4.70
2022-11-12T15:29:39.942Z,4.50
2022-11-12T15:32:35.639Z,4.63
2022-11-12T15:35:36.846Z,4.30
2022-11-12T15:38:31.559Z,4.57
2022-11-12T15:41:25.981Z,4.67
2022-11-12T15:44:13.990Z,4.33
2022-11-12T15:47:01.883Z,4.80
2022-11-12T15:49:51.715Z,4.50
2022-11-12T15:52:38.570Z,4.30
2022-11-12T15:55:25.637Z,4.90
2022-11-12T15:58:18.545Z,4.67
2022-11-12T16:01:06.476Z,4.23
2022-11-12T16:03:53.382Z,5.00
2022-11-12T16:06:41.403Z,4.97
2022-11-12T16:09:28.289Z,4.83
2022-11-12T16:12:16.100Z,4.63
2022-11-12T16:15:03.069Z,4.60
2022-11-12T16:17:50.094Z,5.40
2022-11-12T16:20:37.341Z,5.40
2022-11-12T16:23:25.553Z,5.67
2022-11-12T16:26:17.162Z,5.37
2022-11-12T16:29:04.358Z,5.00
2022-11-12T16:31:51.222Z,5.07
2022-11-12T16:34:38.054Z,4.70
2022-11-12T16:37:24.901Z,5.17
2022-11-12T16:40:16.853Z,5.40
2022-11-12T16:43:03.581Z,5.20
2022-11-12T16:45:50.477Z,6.13
2022-11-12T16:48:38.094Z,5.07
2022-11-12T16:51:25.282Z,4.93
2022-11-12T16:54:11.952Z,5.23
2022-11-12T16:57:00.106Z,6.00
2022-11-12T16:59:47.422Z,6.00
2022-11-12T17:02:38.026Z,5.47
2022-11-12T17:05:28.846Z,5.07
2022-11-12T17:08:15.854Z,7.27
2022-11-12T17:11:09.362Z,7.07
2022-11-12T17:13:57.701Z,6.33
2022-11-12T17:16:44.909Z,6.50
2022-11-12T17:19:31.425Z,6.47
2022-11-12T17:22:20.003Z,6.57
2022-11-12T17:25:09.176Z,7.40
2022-11-12T17:27:56.198Z,7.87
2022-11-12T17:30:44.466Z,8.27
2022-11-12T17:33:31.115Z,9.13
2022-11-12T17:36:20.761Z,9.57
2022-11-12T17:39:07.341Z,9.43
2022-11-12T17:41:53.958Z,8.13
2022-11-12T17:44:41.194Z,9.50
2022-11-12T17:47:29.205Z,10.00
2022-11-12T17:50:16.290Z,8.67
2022-11-12T17:53:02.857Z,8.27
2022-11-12T17:55:58.843Z,8.73
2022-11-12T17:58:47.202Z,7.60
2022-11-12T18:01:35.043Z,7.27
2022-11-12T18:04:30.626Z,7.50
2022-11-12T18:07:17.730Z,6.47
2022-11-12T18:10:05.111Z,6.67
2022-11-12T18:12:53.064Z,7.47
2022-11-12T18:15:39.640Z,8.30
2022-11-12T18:18:26.207Z,8.27
2022-11-12T18:21:14.673Z,7.20
2022-11-12T18:24:01.850Z,6.13
2022-11-12T18:26:48.819Z,5.87
2022-11-12T18:29:36.480Z,5.70
2022-11-12T18:32:23.486Z,6.00
2022-11-12T18:35:30.348Z,5.57
2022-11-12T18:38:18.783Z,5.57
2022-11-12T18:41:32.921Z,4.97
2022-11-12T18:44:24.767Z,5.67
2022-11-12T18:47:13.007Z,6.03
2022-11-12T18:50:02.964Z,6.00
2022-11-12T18:52:53.862Z,5.90
2022-11-12T18:55:44.909Z,6.60
2022-11-12T18:58:35.387Z,6.80
2022-11-12T19:01:24.229Z,8.00
2022-11-12T19:04:17.727Z,7.97
2022-11-12T19:07:04.557Z,7.47
2022-11-12T19:09:51.572Z,9.70
2022-11-12T19:12:39.403Z,13.93
2022-11-12T19:15:27.176Z,17.33
2022-11-12T19:18:14.704Z,15.70
2022-11-12T19:21:04.136Z,13.17
2022-11-12T19:23:54.495Z,11.93
2022-11-12T19:26:41.721Z,12.70
2022-11-12T19:29:30.755Z,12.40
2022-11-12T19:32:17.510Z,10.33
2022-11-12T19:35:04.040Z,8.73
2022-11-12T19:37:50.698Z,6.60
2022-11-12T19:40:37.348Z,5.87
2022-11-12T19:43:24.994Z,7.23
2022-11-12T19:46:13.402Z,7.27
2022-11-12T19:49:00.355Z,7.83
2022-11-12T19:51:47.578Z,8.20
2022-11-12T19:54:34.537Z,13.07
2022-11-12T19:57:21.517Z,16.57
2022-11-12T20:00:10.834Z,11.63
2022-11-12T20:05:46.959Z,7.33
2022-11-12T20:08:34.404Z,8.33
2022-11-12T20:11:21.306Z,8.37
2022-11-12T20:14:07.963Z,10.77
2022-11-12T20:16:54.911Z,10.73
2022-11-12T20:19:42.987Z,8.13
2022-11-12T20:22:32.446Z,6.97
2022-11-12T20:25:19.221Z,5.67
2022-11-12T20:28:14.800Z,5.93
2022-11-12T20:31:03.602Z,6.47
2022-11-12T20:33:51.413Z,6.23
2022-11-12T20:36:39.422Z,6.90
2022-11-12T20:39:25.940Z,6.13
2022-11-12T20:42:12.547Z,6.53
2022-11-12T20:44:59.343Z,6.87
2022-11-12T20:47:46.051Z,6.70
2022-11-12T20:50:32.750Z,7.40
2022-11-12T20:53:20.864Z,6.90
2022-11-12T20:56:10.460Z,6.30
2022-11-12T20:58:57.919Z,6.37
2022-11-12T21:01:44.719Z,6.63
2022-11-12T21:04:31.745Z,6.93
2022-11-12T21:07:18.356Z,9.57
2022-11-12T21:10:09.701Z,13.40
2022-11-12T21:12:56.300Z,13.97
2022-11-12T21:15:46.478Z,9.63
2022-11-12T21:18:35.566Z,7.57
2022-11-12T21:21:22.430Z,7.90
2022-11-12T21:24:13.407Z,7.17
2022-11-12T21:27:01.382Z,5.50
2022-11-12T21:29:48.022Z,5.23
2022-11-12T21:32:34.725Z,4.97
2022-11-12T21:35:21.262Z,5.00
2022-11-12T21:38:08.030Z,4.73
2022-11-12T21:41:03.563Z,4.97
2022-11-12T21:43:51.905Z,4.47
2022-11-12T21:46:40.381Z,4.90
2022-11-12T21:49:27.369Z,5.03
2022-11-12T21:52:14.065Z,5.07
2022-11-12T21:55:00.954Z,5.60
2022-11-12T21:57:47.524Z,5.87
2022-11-12T22:00:43.069Z,5.40
2022-11-12T22:03:31.534Z,5.97
2022-11-12T22:06:19.552Z,5.20
2022-11-12T22:09:06.833Z,5.23
2022-11-12T22:11:54.064Z,4.93
2022-11-12T22:14:40.677Z,6.90
2022-11-12T22:17:28.605Z,6.17
2022-11-12T22:20:15.561Z,6.77
2022-11-12T22:23:02.094Z,6.67
2022-11-12T22:25:50.559Z,6.33
2022-11-12T22:28:37.341Z,5.50
2022-11-12T22:31:26.935Z,6.00
2022-11-12T22:34:15.015Z,6.07
2022-11-12T22:37:01.702Z,6.00
2022-11-12T22:39:48.667Z,6.20
2022-11-12T22:43:10.369Z,6.10
2022-11-12T22:46:06.923Z,5.97
2022-11-12T22:48:53.988Z,6.47
2022-11-12T22:51:42.209Z,6.23
2022-11-12T22:54:29.131Z,5.97
2022-11-12T22:57:15.858Z,6.50
2022-11-12T23:00:09.510Z,5.10
2022-11-12T23:03:01.741Z,5.17
2022-11-12T23:05:51.773Z,4.93
2022-11-12T23:08:39.898Z,5.20
2022-11-12T23:11:27.268Z,4.80
2022-11-12T23:14:13.801Z,5.60
2022-11-12T23:17:00.430Z,4.50
2022-11-12T23:19:47.012Z,4.60
2022-11-12T23:22:33.942Z,5.60
2022-11-12T23:25:21.923Z,4.57
2022-11-12T23:28:08.972Z,6.40
2022-11-12T23:30:55.503Z,6.30
2022-11-12T23:33:46.371Z,6.87
2022-11-12T23:36:33.250Z,8.13
2022-11-12T23:39:19.866Z,6.93
2022-11-12T23:42:07.958Z,7.73
2022-11-12T23:44:54.514Z,6.90
2022-11-12T23:47:41.409Z,7.47
2022-11-12T23:50:27.980Z,6.97
2022-11-12T23:53:14.931Z,6.37
2022-11-12T23:56:02.079Z,6.63
2022-11-12T23:58:50.211Z,7.43
